Time;durP1;ratioP1;P1;durP2;ratioP2;P2;SDS_P1;SDS_P2;PMS_P1;PMS_P2;Temp;Humidity;BMP_temperature;BMP_pressure;BME280_temperature;BME280_humidity;BME280_pressure;Samples;Min_cycle;Max_cycle;Signal;HPM_P1;HPM_P2
2022/08/30 07:14:49;;;;;;;;;;;17.60;99.90;;;;;;6238947;22;19916;-79
2022/08/30 07:36:38;;;;;;;;;;;18.50;99.90;;;;;;6216442;23;19915;-78
2022/08/30 07:53:50;;;;;;;;;;;18.70;99.90;;;;;;5953972;23;19914;-76
2022/08/30 07:56:19;;;;;;;;;;;18.70;99.90;;;;;;5973137;23;19913;-73
2022/08/30 07:58:45;;;;;;;;;;;18.90;99.90;;;;;;6042397;23;19988;-71
2022/08/30 08:01:11;;;;;;;;;;;18.90;99.90;;;;;;6061088;23;19956;-68
2022/08/30 08:03:38;;;;;;;;;;;19.10;99.90;;;;;;6071197;23;20267;-74
2022/08/30 08:06:05;;;;;;;;;;;19.30;99.90;;;;;;6122857;23;20374;-72
2022/08/30 08:08:30;;;;;;;;;;;19.30;99.90;;;;;;6184990;23;19923;-76
2022/08/30 08:11:13;;;;;;;;;;;19.30;99.90;;;;;;6158460;23;20238;-79
2022/08/30 08:13:39;;;;;;;;;;;19.60;99.90;;;;;;6158427;23;19986;-74
2022/08/30 08:16:05;;;;;;;;;;;19.50;99.90;;;;;;6133969;23;20308;-74
2022/08/30 08:18:30;;;;;;;;;;;19.70;99.90;;;;;;6158333;23;19971;-77
2022/08/30 08:20:57;;;;;;;;;;;19.70;99.90;;;;;;6169759;23;19916;-73
2022/08/30 08:23:23;;;;;;;;;;;19.90;99.90;;;;;;6186017;23;19904;-78
2022/08/30 08:25:49;;;;;;;;;;;19.80;99.90;;;;;;6162590;23;19912;-76
2022/08/30 08:28:14;;;;;;;;;;;19.70;99.90;;;;;;6213623;23;19938;-74
2022/08/30 08:30:40;;;;;;;;;;;19.70;99.90;;;;;;6171486;23;19931;-74
2022/08/30 08:33:05;;;;;;;;;;;19.80;99.90;;;;;;6160082;23;19944;-70
2022/08/30 08:35:32;;;;;;;;;;;19.80;99.90;;;;;;6177215;23;19995;-71
2022/08/30 08:37:58;;;;;;;;;;;20.00;99.90;;;;;;6190301;23;19955;-70
2022/08/30 08:40:23;;;;;;;;;;;20.10;99.90;;;;;;6190250;23;19938;-72
2022/08/30 08:43:09;;;;;;;;;;;20.30;99.90;;;;;;6189820;23;20298;-72
2022/08/30 08:45:35;;;;;;;;;;;20.30;99.90;;;;;;6191929;23;19916;-78
2022/08/30 08:48:08;;;;;;;;;;;20.60;99.90;;;;;;6191415;23;19939;-75
2022/08/30 08:50:33;;;;;;;;;;;20.40;99.90;;;;;;6191516;23;19916;-77
2022/08/30 08:55:45;;;;;;;;;;;20.00;99.90;;;;;;6191693;23;19923;-76
2022/08/30 08:58:25;;;;;;;;;;;20.20;99.90;;;;;;6191360;23;19955;-76
2022/08/30 09:00:52;;;;;;;;;;;20.70;99.90;;;;;;6166370;23;19916;-77
2022/08/30 09:03:20;;;;;;;;;;;20.50;99.90;;;;;;6191035;23;19915;-77
2022/08/30 09:05:46;;;;;;;;;;;20.40;99.90;;;;;;6166359;23;19916;-79
2022/08/30 09:08:13;;;;;;;;;;;20.30;99.90;;;;;;6191169;23;19961;-76
2022/08/30 09:10:40;;;;;;;;;;;20.60;99.90;;;;;;6191660;23;19916;-75
2022/08/30 09:13:05;;;;;;;;;;;20.60;99.90;;;;;;6191292;23;20364;-78
2022/08/30 09:15:32;;;;;;;;;;;21.00;99.90;;;;;;6166644;23;19990;-79
2022/08/30 09:18:00;;;;;;;;;;;21.30;99.90;;;;;;6166413;23;19947;-77
2022/08/30 09:20:31;;;;;;;;;;;21.20;99.90;;;;;;6191761;23;19922;-76
2022/08/30 09:22:58;;;;;;;;;;;20.90;99.90;;;;;;6166623;23;19973;-77
2022/08/30 09:25:25;;;;;;;;;;;20.80;99.90;;;;;;6191258;23;19916;-78
2022/08/30 09:27:52;;;;;;;;;;;20.50;99.90;;;;;;6191192;23;19916;-76
2022/08/30 09:30:18;;;;;;;;;;;20.60;99.90;;;;;;6166592;23;19916;-75
2022/08/30 09:32:56;;;;;;;;;;;20.70;99.90;;;;;;6191422;23;19922;-77
2022/08/30 09:35:33;;;;;;;;;;;20.90;99.90;;;;;;6190770;23;19916;-75
2022/08/30 09:38:06;;;;;;;;;;;20.80;99.90;;;;;;6165628;23;19951;-76
2022/08/30 09:40:32;;;;;;;;;;;20.90;99.90;;;;;;6164919;23;19946;-77
2022/08/30 09:42:59;;;;;;;;;;;20.70;99.90;;;;;;6190767;23;19916;-76
2022/08/30 09:45:33;;;;;;;;;;;21.10;99.90;;;;;;6191361;23;19916;-75
2022/08/30 09:47:59;;;;;;;;;;;21.30;99.90;;;;;;6172800;23;19916;-76
2022/08/30 09:50:26;;;;;;;;;;;21.20;99.90;;;;;;6196571;23;19923;-78
2022/08/30 09:53:11;;;;;;;;;;;21.00;99.90;;;;;;6191347;23;19916;-76
2022/08/30 09:55:45;;;;;;;;;;;21.30;99.90;;;;;;6191244;23;19955;-79
2022/08/30 09:58:11;;;;;;;;;;;21.40;99.90;;;;;;6165953;23;19922;-75
2022/08/30 10:00:44;;;;;;;;;;;21.40;99.90;;;;;;6165942;23;19951;-75
2022/08/30 10:03:12;;;;;;;;;;;21.30;99.90;;;;;;6216060;23;20204;-74
2022/08/30 10:06:10;;;;;;;;;;;21.50;99.90;;;;;;6190992;23;19916;-76
2022/08/30 10:08:40;;;;;;;;;;;21.70;99.90;;;;;;6126007;23;19927;-80
2022/08/30 10:11:25;;;;;;;;;;;21.80;99.90;;;;;;6190946;23;19916;-76
2022/08/30 10:13:57;;;;;;;;;;;21.90;99.90;;;;;;6191025;23;19923;-77
2022/08/30 10:16:38;;;;;;;;;;;21.90;99.90;;;;;;6190720;23;19916;-78
2022/08/30 10:19:16;;;;;;;;;;;21.70;99.90;;;;;;6190552;23;19995;-75
2022/08/30 10:21:51;;;;;;;;;;;21.60;99.90;;;;;;6165420;23;19916;-76
2022/08/30 10:24:18;;;;;;;;;;;21.60;99.90;;;;;;6165446;23;19966;-75
2022/08/30 10:26:49;;;;;;;;;;;21.50;99.90;;;;;;6217288;23;19912;-75
2022/08/30 10:29:21;;;;;;;;;;;21.30;99.90;;;;;;6165415;23;19982;-76
2022/08/30 10:31:46;;;;;;;;;;;21.30;99.90;;;;;;6165743;23;19927;-74
2022/08/30 10:34:21;;;;;;;;;;;21.50;99.90;;;;;;6216988;23;19920;-77
2022/08/30 10:36:53;;;;;;;;;;;21.60;99.90;;;;;;6215668;23;20262;-75
2022/08/30 10:39:24;;;;;;;;;;;21.90;99.90;;;;;;6165605;23;19990;-77
2022/08/30 10:41:57;;;;;;;;;;;21.80;99.90;;;;;;6190366;23;19916;-77
2022/08/30 10:44:23;;;;;;;;;;;21.90;99.90;;;;;;6217250;23;20269;-75
2022/08/30 10:47:01;;;;;;;;;;;21.90;99.90;;;;;;6190559;23;19923;-75
2022/08/30 10:49:28;;;;;;;;;;;22.10;99.90;;;;;;6190507;23;20223;-78
2022/08/30 10:51:59;;;;;;;;;;;22.10;99.90;;;;;;6165521;23;19915;-77
2022/08/30 10:54:37;;;;;;;;;;;21.90;99.90;;;;;;6165532;23;19920;-76
2022/08/30 10:57:03;;;;;;;;;;;21.80;99.90;;;;;;6189667;23;19962;-75
2022/08/30 10:59:29;;;;;;;;;;;22.10;99.90;;;;;;6188783;23;19917;-78
2022/08/30 11:02:06;;;;;;;;;;;22.20;99.90;;;;;;6189669;23;19911;-74
2022/08/30 11:04:32;;;;;;;;;;;22.30;99.90;;;;;;6215106;23;19916;-74
2022/08/30 11:06:58;;;;;;;;;;;22.40;99.90;;;;;;6189914;23;20278;-74
2022/08/30 11:09:42;;;;;;;;;;;22.40;99.90;;;;;;6215451;23;19978;-78
2022/08/30 11:12:26;;;;;;;;;;;22.40;99.90;;;;;;6190104;23;19991;-76
2022/08/30 11:15:10;;;;;;;;;;;21.80;99.90;;;;;;6193158;23;19916;-81
2022/08/30 11:17:42;;;;;;;;;;;21.70;99.90;;;;;;6192733;23;19916;-77
2022/08/30 11:20:29;;;;;;;;;;;22.00;99.90;;;;;;6190530;23;19920;-81
2022/08/30 11:23:19;;;;;;;;;;;22.10;99.90;;;;;;6165306;23;19923;-73
2022/08/30 11:25:52;;;;;;;;;;;22.10;99.60;;;;;;6189963;23;19915;-74
2022/08/30 11:28:33;;;;;;;;;;;22.00;98.90;;;;;;6189945;23;19916;-72
2022/08/30 11:31:09;;;;;;;;;;;22.00;99.80;;;;;;6190060;23;19916;-75
2022/08/30 11:33:43;;;;;;;;;;;21.70;99.50;;;;;;6190201;23;19916;-75
2022/08/30 11:36:10;;;;;;;;;;;21.60;99.10;;;;;;6189980;23;19916;-74
2022/08/30 11:38:36;;;;;;;;;;;21.70;99.70;;;;;;6189929;23;19986;-75
2022/08/30 11:41:09;;;;;;;;;;;21.70;99.00;;;;;;6190071;23;19974;-74
2022/08/30 11:43:34;;;;;;;;;;;21.90;97.80;;;;;;6164863;23;19920;-73
2022/08/30 11:46:15;;;;;;;;;;;21.80;98.40;;;;;;6190322;23;19923;-74
2022/08/30 11:48:51;;;;;;;;;;;21.70;96.80;;;;;;6189917;23;19916;-75
2022/08/30 11:51:25;;;;;;;;;;;21.80;96.60;;;;;;6165249;23;19923;-74
2022/08/30 11:54:00;;;;;;;;;;;21.90;97.70;;;;;;6190030;23;19958;-71
2022/08/30 11:56:25;;;;;;;;;;;21.90;97.20;;;;;;6216733;23;19916;-74
2022/08/30 11:58:58;;;;;;;;;;;22.00;96.70;;;;;;6189985;23;19998;-74
2022/08/30 12:01:23;;;;;;;;;;;21.90;97.50;;;;;;6190007;23;20323;-74
2022/08/30 12:04:03;;;;;;;;;;;21.80;98.70;;;;;;6191269;23;19923;-77
2022/08/30 12:06:40;;;;;;;;;;;21.80;99.30;;;;;;6166429;23;19923;-78
2022/08/30 12:09:07;;;;;;;;;;;21.90;99.30;;;;;;6191983;23;19939;-77
2022/08/30 12:11:33;;;;;;;;;;;22.00;98.70;;;;;;6166922;23;19962;-73
2022/08/30 12:14:00;;;;;;;;;;;22.00;99.30;;;;;;6166506;23;19915;-75
2022/08/30 12:19:29;;;;;;;;;;;22.00;98.00;;;;;;6191008;23;20266;-79
2022/08/30 12:22:06;;;;;;;;;;;21.90;97.50;;;;;;6167571;23;19966;-80
2022/08/30 12:24:42;;;;;;;;;;;22.00;96.70;;;;;;6166837;23;19988;-78
2022/08/30 12:27:23;;;;;;;;;;;21.60;96.80;;;;;;6166637;23;19934;-79
2022/08/30 12:29:50;;;;;;;;;;;21.70;97.00;;;;;;6190505;23;19947;-77
2022/08/30 12:32:18;;;;;;;;;;;21.70;96.30;;;;;;6166506;23;20041;-79
2022/08/30 12:34:43;;;;;;;;;;;21.80;96.50;;;;;;6190876;23;19985;-77
2022/08/30 12:37:18;;;;;;;;;;;21.90;96.50;;;;;;6191263;23;19920;-77
2022/08/30 12:39:44;;;;;;;;;;;21.80;97.80;;;;;;6191779;23;19912;-77
2022/08/30 12:42:12;;;;;;;;;;;22.10;98.20;;;;;;6166232;23;19987;-77
2022/08/30 12:44:38;;;;;;;;;;;22.00;98.00;;;;;;6191329;23;20282;-77
2022/08/30 12:53:19;;;;;;;;;;;21.90;98.60;;;;;;6230893;22;19922;-85
2022/08/30 12:56:11;;;;;;;;;;;21.80;98.10;;;;;;6220774;23;19974;-78
2022/08/30 12:58:47;;;;;;;;;;;21.70;99.00;;;;;;6194999;23;19916;-77
2022/08/30 13:01:16;;;;;;;;;;;21.60;98.70;;;;;;6194729;23;20318;-76
2022/08/30 13:07:04;;;;;;;;;;;21.60;99.50;;;;;;6246667;23;20321;-77
2022/08/30 13:09:32;;;;;;;;;;;21.80;97.90;;;;;;6219669;23;19991;-73
2022/08/30 13:12:02;;;;;;;;;;;22.00;98.00;;;;;;6220774;23;19916;-81
2022/08/30 13:17:37;;;;;;;;;;;21.80;97.80;;;;;;6221246;23;19939;-77
2022/08/30 13:20:04;;;;;;;;;;;21.90;96.80;;;;;;6196315;23;19912;-75
2022/08/30 13:22:30;;;;;;;;;;;22.10;98.30;;;;;;6220908;23;19915;-75
2022/08/30 13:24:56;;;;;;;;;;;22.10;97.20;;;;;;6221029;23;19919;-74
2022/08/30 13:27:25;;;;;;;;;;;21.60;96.70;;;;;;6196443;23;19911;-74
2022/08/30 13:29:50;;;;;;;;;;;21.90;96.90;;;;;;6196073;23;19982;-74
2022/08/30 13:32:16;;;;;;;;;;;22.10;96.30;;;;;;6221435;23;19961;-77
2022/08/30 13:34:42;;;;;;;;;;;22.00;97.20;;;;;;6221232;23;19982;-75
2022/08/30 13:37:09;;;;;;;;;;;22.10;96.70;;;;;;6220864;23;20262;-73
2022/08/30 13:39:35;;;;;;;;;;;22.10;97.40;;;;;;6220595;23;19965;-76
2022/08/30 13:42:00;;;;;;;;;;;22.20;96.90;;;;;;6221036;23;19916;-73
2022/08/30 13:44:29;;;;;;;;;;;22.40;98.00;;;;;;6221212;23;19919;-74
2022/08/30 13:46:57;;;;;;;;;;;22.10;98.30;;;;;;6196184;23;19939;-75
2022/08/30 13:49:28;;;;;;;;;;;22.30;98.00;;;;;;6195872;23;20318;-75
2022/08/30 13:52:02;;;;;;;;;;;22.40;98.10;;;;;;6220922;23;19923;-78
2022/08/30 13:54:33;;;;;;;;;;;22.60;97.90;;;;;;6220558;23;20369;-76
2022/08/30 13:57:01;;;;;;;;;;;22.20;96.90;;;;;;6196107;23;19912;-79
2022/08/30 13:59:31;;;;;;;;;;;22.40;97.20;;;;;;6195814;23;19918;-72
2022/08/30 14:01:57;;;;;;;;;;;22.40;97.30;;;;;;6220716;23;19915;-76
2022/08/30 14:04:26;;;;;;;;;;;22.50;97.40;;;;;;6246010;23;19966;-80
2022/08/30 14:06:51;;;;;;;;;;;22.50;97.30;;;;;;6220222;23;19911;-76
2022/08/30 14:09:17;;;;;;;;;;;22.60;97.90;;;;;;6195774;23;20203;-76
2022/08/30 14:11:49;;;;;;;;;;;22.40;98.00;;;;;;6196331;23;19966;-80
2022/08/30 14:14:17;;;;;;;;;;;22.40;97.80;;;;;;6196080;23;19919;-73
2022/08/30 14:16:43;;;;;;;;;;;22.20;97.90;;;;;;6220518;23;19911;-74
2022/08/30 14:19:11;;;;;;;;;;;22.20;97.80;;;;;;6220391;23;19911;-75
2022/08/30 14:21:36;;;;;;;;;;;22.20;97.20;;;;;;6220734;23;19946;-74
2022/08/30 14:24:05;;;;;;;;;;;22.40;97.90;;;;;;6221044;23;19919;-76
2022/08/30 14:26:32;;;;;;;;;;;22.70;97.60;;;;;;6220051;23;19916;-74
2022/08/30 14:28:58;;;;;;;;;;;22.80;96.80;;;;;;6219699;23;19963;-76
2022/08/30 14:31:24;;;;;;;;;;;22.90;96.80;;;;;;6170332;23;20361;-74
2022/08/30 14:33:49;;;;;;;;;;;23.00;96.00;;;;;;6220153;23;19915;-75
2022/08/30 14:36:15;;;;;;;;;;;22.60;97.00;;;;;;6195005;23;19916;-74
2022/08/30 14:38:41;;;;;;;;;;;22.80;97.10;;;;;;6195531;23;20341;-76
2022/08/30 14:41:08;;;;;;;;;;;23.10;96.90;;;;;;6221531;23;19949;-73
2022/08/30 14:43:34;;;;;;;;;;;23.00;96.70;;;;;;6202240;22;19915;-74
2022/08/30 14:46:00;;;;;;;;;;;23.10;96.00;;;;;;6224046;23;19904;-74
2022/08/30 14:48:25;;;;;;;;;;;23.10;95.80;;;;;;6223993;22;19915;-76
2022/08/30 14:50:51;;;;;;;;;;;23.10;96.60;;;;;;6249158;22;19943;-73
2022/08/30 14:53:17;;;;;;;;;;;23.00;96.70;;;;;;6223516;22;19919;-74
2022/08/30 14:55:42;;;;;;;;;;;23.20;96.20;;;;;;6263438;22;19916;-75
2022/08/30 14:58:09;;;;;;;;;;;23.60;95.70;;;;;;6220318;23;20226;-75
2022/08/30 15:00:38;;;;;;;;;;;23.70;95.20;;;;;;6220549;23;20350;-75
2022/08/30 15:03:04;;;;;;;;;;;23.50;95.20;;;;;;6220444;23;19915;-67
2022/08/30 15:05:31;;;;;;;;;;;23.70;95.30;;;;;;6220236;23;19938;-68
2022/08/30 15:07:57;;;;;;;;;;;23.60;95.60;;;;;;6195165;23;19919;-68
2022/08/30 15:10:22;;;;;;;;;;;23.40;95.90;;;;;;6193894;23;19922;-69
2022/08/30 15:12:49;;;;;;;;;;;23.30;96.10;;;;;;6218832;23;19982;-67
2022/08/30 15:15:18;;;;;;;;;;;22.70;96.80;;;;;;6193672;23;19966;-67
2022/08/30 15:17:44;;;;;;;;;;;22.60;97.60;;;;;;6218848;23;19919;-67
2022/08/30 15:20:10;;;;;;;;;;;22.50;97.60;;;;;;6219223;23;19920;-67
2022/08/30 15:22:35;;;;;;;;;;;21.60;99.50;;;;;;6193346;23;19977;-69
2022/08/30 15:25:04;;;;;;;;;;;21.70;99.70;;;;;;6217941;23;21452;-67
2022/08/30 15:27:29;;;;;;;;;;;21.60;99.90;;;;;;6218441;23;19911;-67
2022/08/30 15:29:55;;;;;;;;;;;21.60;99.90;;;;;;6218465;23;19926;-68
2022/08/30 15:32:20;;;;;;;;;;;21.40;99.90;;;;;;6218158;23;20018;-69
2022/08/30 15:34:46;;;;;;;;;;;21.50;99.90;;;;;;6218719;23;19927;-69
2022/08/30 15:37:11;;;;;;;;;;;21.30;99.90;;;;;;6193673;23;20277;-69
2022/08/30 15:39:37;;;;;;;;;;;21.20;99.90;;;;;;6218713;23;19916;-70
2022/08/30 15:42:03;;;;;;;;;;;21.10;99.90;;;;;;6245052;23;19994;-67
2022/08/30 15:44:29;;;;;;;;;;;21.00;99.90;;;;;;6218593;23;19916;-71
2022/08/30 15:46:55;;;;;;;;;;;21.00;99.90;;;;;;6218796;23;19916;-71
2022/08/30 15:49:21;;;;;;;;;;;20.90;99.90;;;;;;6218956;23;19923;-68
2022/08/30 15:51:50;;;;;;;;;;;20.80;99.90;;;;;;6245851;23;19915;-70
2022/08/30 15:54:18;;;;;;;;;;;20.70;99.90;;;;;;6220336;23;19991;-68
2022/08/30 15:56:57;;;;;;;;;;;20.70;99.90;;;;;;6220231;23;19994;-74
2022/08/30 15:59:38;;;;;;;;;;;20.60;99.90;;;;;;6194914;23;19912;-82
2022/08/30 16:02:04;;;;;;;;;;;20.60;99.90;;;;;;6194588;23;19916;-77
2022/08/30 16:04:32;;;;;;;;;;;20.40;99.90;;;;;;6219453;23;19951;-80
2022/08/30 16:07:23;;;;;;;;;;;20.50;99.90;;;;;;6219344;23;19943;-79
2022/08/30 16:10:38;;;;;;;;;;;20.40;99.90;;;;;;6225455;23;19918;-79
2022/08/30 16:13:04;;;;;;;;;;;20.20;99.90;;;;;;6203757;23;19958;-79
2022/08/30 16:19:23;;;;;;;;;;;20.10;99.90;;;;;;6201460;23;19942;-80
2022/08/30 16:22:29;;;;;;;;;;;;;;;;;;;;;
2022/08/30 16:25:48;;;;;;;;;;;20.00;99.90;;;;;;6123954;23;19968;-76
2022/08/30 16:36:00;;;;;;;;;;;19.70;99.90;;;;;;6255252;22;19915;-74
2022/08/30 16:38:51;;;;;;;;;;;19.70;99.90;;;;;;6211994;23;19923;-73
2022/08/30 16:41:17;;;;;;;;;;;19.70;99.90;;;;;;6194910;23;19923;-72
2022/08/30 16:43:43;;;;;;;;;;;19.60;99.90;;;;;;6194868;23;19916;-71
2022/08/30 16:46:10;;;;;;;;;;;19.50;99.90;;;;;;6219378;23;20008;-73
2022/08/30 16:48:36;;;;;;;;;;;19.50;99.90;;;;;;6220380;23;19934;-73
2022/08/30 16:51:06;;;;;;;;;;;19.40;99.90;;;;;;6221531;23;19915;-71
2022/08/30 16:53:32;;;;;;;;;;;19.40;99.90;;;;;;6221307;23;19954;-69
2022/08/30 16:55:57;;;;;;;;;;;19.40;99.90;;;;;;6196620;23;20258;-70
2022/08/30 16:58:23;;;;;;;;;;;19.30;99.90;;;;;;6247880;23;19916;-71
2022/08/30 17:00:49;;;;;;;;;;;19.30;99.90;;;;;;6171808;23;19926;-73
2022/08/30 17:03:15;;;;;;;;;;;19.30;99.90;;;;;;6221412;23;19916;-72
2022/08/30 17:05:42;;;;;;;;;;;19.20;99.90;;;;;;6221632;23;19962;-76
2022/08/30 17:08:07;;;;;;;;;;;19.20;99.90;;;;;;6221343;23;19916;-74
2022/08/30 17:10:33;;;;;;;;;;;19.20;99.90;;;;;;6196648;23;19966;-74
2022/08/30 17:12:59;;;;;;;;;;;19.10;99.90;;;;;;6196311;23;19920;-72
2022/08/30 17:15:25;;;;;;;;;;;19.00;99.90;;;;;;6195886;23;19915;-74
2022/08/30 17:17:51;;;;;;;;;;;19.00;99.90;;;;;;6196168;23;19922;-71
2022/08/30 17:20:17;;;;;;;;;;;19.00;99.90;;;;;;6221341;23;19916;-72
2022/08/30 17:22:43;;;;;;;;;;;19.00;99.90;;;;;;6196351;23;20372;-70
2022/08/30 17:25:08;;;;;;;;;;;18.90;99.90;;;;;;6195860;23;19961;-72
2022/08/30 17:27:34;;;;;;;;;;;18.90;99.90;;;;;;6196233;23;19916;-72
2022/08/30 17:34:19;;;;;;;;;;;18.80;99.90;;;;;;6126437;23;19980;-81
2022/08/30 17:36:51;;;;;;;;;;;18.70;99.90;;;;;;6144810;23;19919;-79
2022/08/30 17:43:06;;;;;;;;;;;18.60;99.90;;;;;;6252072;23;19930;-78
2022/08/30 17:45:32;;;;;;;;;;;18.60;99.90;;;;;;6173569;23;19915;-79
2022/08/30 17:47:59;;;;;;;;;;;18.50;99.90;;;;;;6198147;23;19965;-77
2022/08/30 17:50:25;;;;;;;;;;;18.50;99.90;;;;;;6197959;23;19911;-78
2022/08/30 17:52:51;;;;;;;;;;;18.40;99.90;;;;;;6197844;23;19986;-79
2022/08/30 17:55:17;;;;;;;;;;;18.40;99.90;;;;;;6198388;23;19939;-78
2022/08/30 17:57:42;;;;;;;;;;;18.40;99.90;;;;;;6200854;23;19918;-77
2022/08/30 18:00:10;;;;;;;;;;;18.30;99.90;;;;;;6199012;23;19982;-78
2022/08/30 18:02:57;;;;;;;;;;;18.20;99.90;;;;;;6222927;23;20314;-79
2022/08/30 18:05:31;;;;;;;;;;;18.10;99.90;;;;;;6201119;23;19922;-78
2022/08/30 18:07:56;;;;;;;;;;;18.10;99.90;;;;;;6198458;23;19943;-78
2022/08/30 18:10:22;;;;;;;;;;;18.10;99.90;;;;;;6224486;23;19918;-77
2022/08/30 18:12:48;;;;;;;;;;;18.00;99.90;;;;;;6198395;23;19927;-77
2022/08/30 18:15:14;;;;;;;;;;;18.00;99.90;;;;;;6197975;23;19919;-78
2022/08/30 18:17:43;;;;;;;;;;;18.00;99.90;;;;;;6200209;23;19916;-79
2022/08/30 18:20:12;;;;;;;;;;;17.90;99.90;;;;;;6200983;23;20273;-77
2022/08/30 18:22:52;;;;;;;;;;;17.80;99.90;;;;;;6243530;23;19911;-75
2022/08/30 18:25:18;;;;;;;;;;;17.80;99.90;;;;;;6231824;23;19919;-79
2022/08/30 18:27:44;;;;;;;;;;;17.80;99.90;;;;;;6195502;23;19918;-79
2022/08/30 18:30:12;;;;;;;;;;;17.70;99.90;;;;;;6195352;23;19997;-74
2022/08/30 18:32:38;;;;;;;;;;;17.70;99.90;;;;;;6220495;23;20295;-75
2022/08/30 18:35:04;;;;;;;;;;;17.70;99.90;;;;;;6183575;23;20311;-76
2022/08/30 18:41:27;;;;;;;;;;;17.60;99.90;;;;;;6218287;23;20278;-78
2022/08/30 18:57:49;;;;;;;;;;;17.10;99.90;;;;;;6246950;23;19967;-77
2022/08/30 19:00:15;;;;;;;;;;;17.00;99.90;;;;;;6197831;23;19920;-76
2022/08/30 19:02:50;;;;;;;;;;;16.90;99.90;;;;;;6219537;23;19912;-77
2022/08/30 19:05:20;;;;;;;;;;;16.90;99.90;;;;;;6194110;23;20368;-79
2022/08/30 19:07:47;;;;;;;;;;;16.80;99.90;;;;;;6194469;23;19912;-72
2022/08/30 19:16:53;;;;;;;;;;;16.70;99.90;;;;;;6154724;23;19911;-82
2022/08/30 19:19:31;;;;;;;;;;;16.60;99.90;;;;;;6192162;23;19911;-75
2022/08/30 19:22:03;;;;;;;;;;;16.60;99.90;;;;;;6218176;23;19911;-79
2022/08/30 19:24:29;;;;;;;;;;;16.50;99.90;;;;;;6218360;23;19943;-76
2022/08/30 19:26:54;;;;;;;;;;;16.50;99.90;;;;;;6218460;23;20393;-79
2022/08/30 19:29:20;;;;;;;;;;;16.40;99.90;;;;;;6193235;23;19946;-76
2022/08/30 19:31:45;;;;;;;;;;;16.40;99.90;;;;;;6193816;23;20379;-75
2022/08/30 19:34:32;;;;;;;;;;;16.30;99.90;;;;;;6218215;23;19912;-78
2022/08/30 19:37:11;;;;;;;;;;;16.20;99.90;;;;;;6193016;23;19941;-78
2022/08/30 19:39:39;;;;;;;;;;;16.20;99.90;;;;;;6219495;23;19911;-79
2022/08/30 19:42:14;;;;;;;;;;;16.10;99.90;;;;;;6172349;23;20436;-80
2022/08/30 19:45:21;;;;;;;;;;;;;;;;;;;;;
2022/08/30 19:51:34;;;;;;;;;;;;;;;;;;;;;
2022/08/30 19:54:47;;;;;;;;;;;;;;;;;;;;;
2022/08/30 20:05:22;;;;;;;;;;;;;;;;;;;;;
2022/08/30 20:08:23;;;;;;;;;;;15.60;99.90;;;;;;6191915;23;19915;-82
2022/08/30 20:23:35;;;;;;;;;;;;;;;;;;;;;
2022/08/30 20:26:28;;;;;;;;;;;15.50;99.90;;;;;;6172912;22;19919;-79
2022/08/30 20:32:21;;;;;;;;;;;15.40;99.90;;;;;;6266852;22;19992;-76
2022/08/30 20:35:23;;;;;;;;;;;15.50;99.90;;;;;;6252032;22;19918;-80
2022/08/30 20:38:07;;;;;;;;;;;15.50;99.90;;;;;;6256278;22;19910;-77
2022/08/30 20:47:37;;;;;;;;;;;15.40;99.90;;;;;;6279276;22;20306;-81
2022/08/30 20:50:12;;;;;;;;;;;15.30;99.90;;;;;;6226106;22;19919;-78
2022/08/30 20:52:41;;;;;;;;;;;15.20;99.90;;;;;;6250544;22;19978;-78
2022/08/30 20:55:09;;;;;;;;;;;15.20;99.90;;;;;;6223113;22;19925;-77
2022/08/30 20:57:35;;;;;;;;;;;15.20;99.90;;;;;;6225802;22;19918;-74
2022/08/30 21:00:44;;;;;;;;;;;;;;;;;;;;;
2022/08/30 21:03:17;;;;;;;;;;;15.20;99.90;;;;;;6251644;22;19973;-75
2022/08/30 21:05:42;;;;;;;;;;;15.20;99.90;;;;;;6224456;22;20266;-77
2022/08/30 21:11:20;;;;;;;;;;;15.20;99.90;;;;;;6252396;22;20305;-73
2022/08/30 21:13:47;;;;;;;;;;;15.20;99.90;;;;;;6225831;22;19911;-77
2022/08/30 21:16:18;;;;;;;;;;;15.20;99.90;;;;;;6226429;22;19950;-80
2022/08/30 21:18:46;;;;;;;;;;;15.30;99.90;;;;;;6228200;22;20070;-79
2022/08/30 21:21:31;;;;;;;;;;;15.30;99.90;;;;;;6254405;22;19915;-82
2022/08/30 21:45:43;;;;;;;;;;;16.10;99.90;;;;;;6247669;22;19923;-77
2022/08/30 21:48:09;;;;;;;;;;;16.00;99.90;;;;;;6226297;22;20375;-78
2022/08/30 21:50:37;;;;;;;;;;;16.10;99.90;;;;;;6226052;22;19911;-78
2022/08/30 21:53:04;;;;;;;;;;;16.20;99.90;;;;;;6226259;22;20195;-77
2022/08/30 21:55:30;;;;;;;;;;;16.10;99.90;;;;;;6226275;22;20332;-77
2022/08/30 21:57:56;;;;;;;;;;;16.20;99.90;;;;;;6225919;22;19950;-78
2022/08/30 22:00:21;;;;;;;;;;;16.20;99.90;;;;;;6225910;22;19911;-77
2022/08/30 22:02:47;;;;;;;;;;;16.20;99.90;;;;;;6226137;22;19961;-77
2022/08/30 22:05:13;;;;;;;;;;;16.20;99.90;;;;;;6226120;22;19911;-78
2022/08/30 22:07:39;;;;;;;;;;;16.30;99.90;;;;;;6226002;22;19911;-76
2022/08/30 22:10:05;;;;;;;;;;;16.30;99.90;;;;;;6226435;22;19912;-77
2022/08/30 22:12:32;;;;;;;;;;;16.30;99.90;;;;;;6226411;22;19982;-77
2022/08/30 22:14:57;;;;;;;;;;;16.40;99.90;;;;;;6226090;22;20296;-76
2022/08/30 22:17:26;;;;;;;;;;;16.40;99.90;;;;;;6226488;22;19915;-78
2022/08/30 22:19:52;;;;;;;;;;;16.40;99.90;;;;;;6226123;22;19911;-76
2022/08/30 22:22:18;;;;;;;;;;;16.40;99.90;;;;;;6250931;22;19915;-76
2022/08/30 22:24:44;;;;;;;;;;;16.40;99.90;;;;;;6225287;22;19953;-77
2022/08/30 22:27:10;;;;;;;;;;;16.40;99.90;;;;;;6225340;22;19911;-76
2022/08/30 22:29:35;;;;;;;;;;;16.50;99.90;;;;;;6251067;22;19911;-77
2022/08/30 22:32:01;;;;;;;;;;;16.50;99.90;;;;;;6225913;22;19918;-76
2022/08/30 22:34:27;;;;;;;;;;;16.50;99.90;;;;;;6225577;22;19922;-77
2022/08/30 22:36:53;;;;;;;;;;;16.50;99.90;;;;;;6225932;22;19911;-75
2022/08/30 22:39:18;;;;;;;;;;;16.50;99.90;;;;;;6226042;22;19993;-78
2022/08/30 22:41:44;;;;;;;;;;;16.50;99.90;;;;;;6200846;22;19918;-77
2022/08/30 22:44:10;;;;;;;;;;;16.50;99.90;;;;;;6226039;22;19911;-75
2022/08/30 22:46:36;;;;;;;;;;;16.50;99.90;;;;;;6225385;22;19919;-77
2022/08/30 22:49:03;;;;;;;;;;;16.50;99.90;;;;;;6225862;22;20326;-77
2022/08/30 22:51:28;;;;;;;;;;;16.50;99.90;;;;;;6252198;22;19911;-77
2022/08/30 22:53:54;;;;;;;;;;;16.50;99.90;;;;;;6224928;22;19973;-78
2022/08/30 22:56:22;;;;;;;;;;;16.40;99.90;;;;;;6251594;22;19911;-76
2022/08/30 22:58:47;;;;;;;;;;;16.40;99.90;;;;;;6239995;22;19907;-77
2022/08/30 23:01:17;;;;;;;;;;;16.30;99.90;;;;;;6254158;22;19924;-77
2022/08/30 23:03:43;;;;;;;;;;;16.30;99.90;;;;;;6254086;22;19903;-77
2022/08/30 23:06:09;;;;;;;;;;;16.20;99.90;;;;;;6253858;22;19903;-77
2022/08/30 23:08:34;;;;;;;;;;;16.10;99.90;;;;;;6251405;22;19911;-75
2022/08/30 23:11:00;;;;;;;;;;;16.00;99.90;;;;;;6226552;22;19912;-78
2022/08/30 23:13:26;;;;;;;;;;;15.90;99.90;;;;;;6250463;22;19911;-77
2022/08/30 23:15:51;;;;;;;;;;;15.80;99.90;;;;;;6225810;22;19918;-77
2022/08/30 23:18:17;;;;;;;;;;;15.70;99.90;;;;;;6225343;22;20056;-77
2022/08/30 23:20:44;;;;;;;;;;;15.50;99.90;;;;;;6225481;22;19919;-77
